Time;durP1;ratioP1;P1;durP2;ratioP2;P2;SDS_P1;SDS_P2;PMS_P1;PMS_P2;Temp;Humidity;BMP_temperature;BMP_pressure;BME280_temperature;BME280_humidity;BME280_pressure;Samples;Min_cycle;Max_cycle;Signal;HPM_P1;HPM_P2
2022/05/23 00:00:24;;;;;;;7.05;2.10;;;14.10;99.90;;;;;;5051845;28;20493;-70
2022/05/23 00:02:50;;;;;;;4.75;2.10;;;14.10;99.90;;;;;;5051884;28;20056;-71
2022/05/23 00:05:16;;;;;;;4.85;2.20;;;14.10;99.90;;;;;;5051802;28;20531;-72
2022/05/23 00:07:45;;;;;;;7.15;2.30;;;14.10;99.90;;;;;;5050778;28;20045;-71
2022/05/23 00:10:13;;;;;;;7.15;2.55;;;14.00;99.90;;;;;;5053847;28;20041;-71
2022/05/23 00:12:39;;;;;;;5.80;2.03;;;14.00;99.90;;;;;;5053738;28;20033;-70
2022/05/23 00:15:07;;;;;;;3.72;2.15;;;14.00;99.90;;;;;;5056100;28;20133;-70
2022/05/23 00:17:32;;;;;;;8.07;2.50;;;14.00;99.90;;;;;;5056007;28;20045;-71
2022/05/23 00:19:58;;;;;;;7.13;2.13;;;14.00;99.90;;;;;;5057017;28;20068;-71
2022/05/23 00:22:23;;;;;;;5.47;2.05;;;14.00;99.90;;;;;;5057071;28;20048;-71
2022/05/23 00:24:49;;;;;;;6.95;2.15;;;14.00;99.90;;;;;;5056315;28;20400;-71
2022/05/23 00:27:19;;;;;;;5.72;2.15;;;13.90;99.90;;;;;;5056716;28;20401;-70
2022/05/23 00:29:44;;;;;;;6.25;1.90;;;14.00;99.90;;;;;;5036027;28;20385;-71
2022/05/23 00:35:20;;;;;;;5.32;2.30;;;13.90;99.90;;;;;;5012157;28;20481;-70
2022/05/23 00:37:52;;;;;;;7.80;2.28;;;13.90;99.90;;;;;;5054346;28;20387;-71
2022/05/23 00:40:24;;;;;;;6.75;2.15;;;13.80;99.90;;;;;;5055566;28;20135;-71
2022/05/23 00:45:34;;;;;;;4.97;2.03;;;13.80;99.90;;;;;;5056538;28;20045;-70
2022/05/23 00:48:00;;;;;;;6.15;2.28;;;13.70;99.90;;;;;;5037875;28;20067;-70
2022/05/23 00:50:26;;;;;;;8.02;2.30;;;13.70;99.90;;;;;;5054163;28;20041;-70
2022/05/23 00:52:55;;;;;;;5.72;2.40;;;13.70;99.90;;;;;;5055582;28;20040;-71
2022/05/23 00:55:30;;;;;;;8.73;2.40;;;13.60;99.90;;;;;;5055456;28;20048;-71
2022/05/23 00:58:01;;;;;;;6.47;2.65;;;13.60;99.90;;;;;;5056247;28;20041;-70
2022/05/23 01:00:28;;;;;;;4.63;1.93;;;13.60;99.90;;;;;;5052741;28;20541;-71
2022/05/23 01:02:57;;;;;;;6.50;2.22;;;13.50;99.90;;;;;;5053338;28;20170;-71
2022/05/23 01:05:24;;;;;;;6.53;2.10;;;13.50;99.90;;;;;;5056213;28;20045;-70
2022/05/23 01:07:49;;;;;;;6.53;2.33;;;13.50;99.90;;;;;;5053853;28;20045;-70
2022/05/23 01:10:15;;;;;;;4.47;2.10;;;13.40;99.90;;;;;;5054988;28;20033;-71
2022/05/23 01:12:41;;;;;;;5.72;2.10;;;13.40;99.90;;;;;;5056131;28;20489;-71
2022/05/23 01:15:26;;;;;;;4.53;2.10;;;13.40;99.90;;;;;;5054724;28;20516;-71
2022/05/23 01:17:52;;;;;;;8.07;2.50;;;13.40;99.90;;;;;;5055208;28;20040;-71
2022/05/23 01:20:19;;;;;;;5.30;2.03;;;13.20;99.90;;;;;;5053266;28;20032;-71
2022/05/23 01:23:14;;;;;;;2.97;1.90;;;13.20;99.90;;;;;;5055082;28;20112;-71
2022/05/23 01:25:43;;;;;;;5.05;2.85;;;13.30;99.90;;;;;;5055904;28;20044;-71
2022/05/23 01:28:10;;;;;;;5.32;2.20;;;13.30;99.90;;;;;;5054774;28;20039;-71
2022/05/23 01:30:37;;;;;;;6.38;2.40;;;13.30;99.90;;;;;;5049744;28;20508;-71
2022/05/23 01:33:03;;;;;;;5.75;2.30;;;13.30;99.90;;;;;;5053391;28;20041;-71
2022/05/23 01:35:29;;;;;;;7.40;2.83;;;13.30;99.90;;;;;;5033058;28;20045;-71
2022/05/23 01:37:55;;;;;;;7.07;2.60;;;13.10;99.90;;;;;;5053270;28;20053;-71
2022/05/23 01:40:21;;;;;;;5.32;2.25;;;13.10;99.90;;;;;;5045392;28;20025;-71
2022/05/23 01:42:48;;;;;;;5.18;2.42;;;13.10;99.90;;;;;;5055592;28;20481;-71
2022/05/23 01:45:18;;;;;;;6.88;2.50;;;13.10;99.90;;;;;;5051668;28;20040;-71
2022/05/23 01:47:44;;;;;;;7.45;2.80;;;13.10;99.90;;;;;;5054223;28;20072;-71
2022/05/23 01:50:10;;;;;;;4.22;2.25;;;13.00;99.90;;;;;;5027195;28;20595;-71
2022/05/23 01:52:37;;;;;;;5.28;2.63;;;13.00;99.90;;;;;;5027629;28;20056;-71
2022/05/23 01:55:03;;;;;;;7.43;3.00;;;13.00;99.90;;;;;;5024734;28;20133;-71
2022/05/23 01:57:31;;;;;;;5.72;2.80;;;13.00;99.90;;;;;;5026760;28;20044;-72
2022/05/23 02:02:44;;;;;;;7.25;2.92;;;12.90;99.90;;;;;;5028199;28;20054;-71
2022/05/23 02:05:10;;;;;;;7.10;2.65;;;12.90;99.90;;;;;;5047459;28;20047;-71
2022/05/23 02:07:36;;;;;;;8.52;3.40;;;12.90;99.90;;;;;;5054868;28;20055;-72
2022/05/23 02:10:02;;;;;;;5.32;2.80;;;12.90;99.90;;;;;;5025083;28;20048;-71
2022/05/23 02:12:28;;;;;;;7.65;3.20;;;12.90;99.90;;;;;;5025826;28;20037;-71
2022/05/23 02:14:54;;;;;;;7.53;3.25;;;13.00;99.90;;;;;;5025371;28;20412;-71
2022/05/23 02:17:19;;;;;;;7.03;3.03;;;12.90;99.90;;;;;;5025818;28;20087;-72
2022/05/23 02:19:45;;;;;;;7.38;2.95;;;12.90;99.90;;;;;;5024226;28;20033;-71
2022/05/23 02:22:11;;;;;;;7.40;3.20;;;12.90;99.90;;;;;;5012896;28;20048;-71
2022/05/23 02:24:36;;;;;;;6.85;2.97;;;13.00;99.90;;;;;;5026666;28;20088;-72
2022/05/23 02:27:02;;;;;;;8.20;3.13;;;13.00;99.90;;;;;;5025900;28;20080;-71
2022/05/23 02:29:27;;;;;;;6.65;2.85;;;13.10;99.90;;;;;;5030303;28;20416;-71
2022/05/23 02:31:53;;;;;;;5.68;3.08;;;13.00;99.90;;;;;;5032419;28;20126;-71
2022/05/23 02:34:19;;;;;;;7.45;3.67;;;13.00;99.90;;;;;;5046035;28;20061;-72
2022/05/23 02:36:46;;;;;;;6.00;2.92;;;13.10;99.90;;;;;;5054183;28;20123;-71
2022/05/23 02:39:12;;;;;;;7.50;2.90;;;13.00;99.90;;;;;;5037404;28;20046;-71
2022/05/23 02:41:38;;;;;;;6.57;3.15;;;13.00;99.90;;;;;;5027763;28;20041;-71
2022/05/23 02:44:05;;;;;;;5.57;3.50;;;13.00;99.90;;;;;;5024982;28;20042;-71
2022/05/23 02:46:30;;;;;;;6.35;3.20;;;12.90;99.90;;;;;;5039935;28;20036;-71
2022/05/23 02:48:56;;;;;;;7.38;3.38;;;12.90;99.90;;;;;;5036769;28;20845;-71
2022/05/23 02:51:23;;;;;;;7.30;3.38;;;12.90;99.90;;;;;;5028370;28;20056;-71
2022/05/23 02:53:49;;;;;;;7.28;3.38;;;12.90;99.90;;;;;;5026240;28;20049;-71
2022/05/23 02:56:15;;;;;;;7.22;3.53;;;12.90;99.90;;;;;;5025174;28;20049;-72
2022/05/23 02:58:41;;;;;;;7.22;3.40;;;12.90;99.90;;;;;;5025954;28;20041;-71
2022/05/23 03:01:06;;;;;;;7.90;3.45;;;12.90;99.90;;;;;;5023961;28;20048;-71
2022/05/23 03:03:33;;;;;;;8.13;3.78;;;12.90;99.90;;;;;;5031217;28;20122;-71
2022/05/23 03:05:59;;;;;;;5.93;3.55;;;12.90;99.90;;;;;;5029619;28;20036;-71
2022/05/23 03:08:27;;;;;;;5.65;3.30;;;12.90;99.90;;;;;;5061393;28;20489;-71
2022/05/23 03:10:56;;;;;;;6.68;3.33;;;12.90;99.90;;;;;;5033232;28;20099;-71
2022/05/23 03:13:23;;;;;;;6.55;3.47;;;12.90;99.90;;;;;;5053872;28;20052;-70
2022/05/23 03:15:48;;;;;;;7.30;3.65;;;12.90;99.90;;;;;;5029010;28;20047;-71
2022/05/23 03:18:14;;;;;;;8.75;3.95;;;12.90;99.90;;;;;;5025953;28;20044;-71
2022/05/23 03:20:40;;;;;;;7.78;3.63;;;13.00;99.90;;;;;;5026425;28;20037;-71
2022/05/23 03:28:36;;;;;;;6.55;3.67;;;12.90;99.90;;;;;;5029397;28;20048;-70
2022/05/23 03:31:03;;;;;;;5.57;3.50;;;12.90;99.90;;;;;;5029425;28;20517;-70
2022/05/23 03:33:29;;;;;;;6.43;3.63;;;12.90;99.90;;;;;;5032106;28;20048;-70
2022/05/23 03:35:55;;;;;;;6.38;3.58;;;12.90;99.90;;;;;;5026583;28;20174;-70
2022/05/23 03:38:22;;;;;;;7.32;3.80;;;13.00;99.90;;;;;;5024515;28;20044;-71
2022/05/23 03:40:48;;;;;;;8.95;3.42;;;13.00;99.90;;;;;;5025142;28;20582;-73
2022/05/23 03:43:14;;;;;;;6.70;3.53;;;13.00;99.90;;;;;;5053110;28;20125;-71
2022/05/23 03:45:40;;;;;;;8.38;3.85;;;13.00;99.90;;;;;;5048606;28;20111;-71
2022/05/23 03:48:06;;;;;;;7.88;3.95;;;13.00;99.90;;;;;;5051953;28;20520;-71
2022/05/23 03:50:33;;;;;;;6.95;4.00;;;12.90;99.90;;;;;;5050771;28;20072;-71
2022/05/23 03:53:00;;;;;;;8.63;4.20;;;12.90;99.90;;;;;;5052931;28;20048;-71
2022/05/23 03:55:27;;;;;;;8.70;3.92;;;12.90;99.90;;;;;;5042185;28;20408;-71
2022/05/23 03:57:52;;;;;;;9.02;3.97;;;12.90;99.90;;;;;;5023744;28;20045;-72
2022/05/23 04:00:18;;;;;;;8.43;3.47;;;12.80;99.90;;;;;;5025030;28;20072;-71
2022/05/23 04:02:44;;;;;;;9.35;4.20;;;12.90;99.90;;;;;;5025436;28;20154;-72
2022/05/23 04:05:14;;;;;;;6.93;3.85;;;12.90;99.90;;;;;;5031923;28;20041;-72
2022/05/23 04:07:41;;;;;;;6.43;3.70;;;12.90;99.90;;;;;;5023751;28;20195;-71
2022/05/23 04:10:10;;;;;;;7.85;3.97;;;13.00;99.90;;;;;;5023315;28;20052;-71
2022/05/23 04:12:36;;;;;;;8.52;3.70;;;13.00;99.90;;;;;;5026157;28;20045;-71
2022/05/23 04:15:02;;;;;;;7.80;3.95;;;12.90;99.90;;;;;;5025537;28;20442;-71
2022/05/23 04:17:28;;;;;;;7.25;3.65;;;12.90;99.90;;;;;;5024942;28;20609;-71
2022/05/23 04:19:54;;;;;;;8.07;4.05;;;12.90;99.90;;;;;;5023856;28;20474;-72
2022/05/23 04:22:19;;;;;;;8.15;4.40;;;12.80;99.90;;;;;;5026623;28;20040;-71
2022/05/23 04:24:45;;;;;;;7.95;4.40;;;12.80;99.90;;;;;;5025826;28;20033;-71
2022/05/23 04:27:10;;;;;;;8.05;4.05;;;12.80;99.90;;;;;;5024674;28;20122;-71
2022/05/23 04:29:36;;;;;;;7.18;3.90;;;12.80;99.90;;;;;;5037264;28;20405;-71
2022/05/23 04:35:12;;;;;;;7.30;4.05;;;12.80;99.90;;;;;;5033207;28;20527;-71
2022/05/23 04:37:32;;;;;;;7.45;4.03;;;12.90;99.90;;;;;;5026695;28;20661;-72
2022/05/23 04:39:57;;;;;;;6.43;3.88;;;12.80;99.90;;;;;;5048318;28;20068;-72
2022/05/23 04:42:23;;;;;;;8.23;4.43;;;12.90;99.90;;;;;;5049094;28;20145;-71
2022/05/23 04:44:51;;;;;;;7.47;3.97;;;12.90;99.90;;;;;;5025593;28;20481;-72
2022/05/23 04:50:03;;;;;;;8.32;4.60;;;12.80;99.90;;;;;;5023715;28;20188;-71
2022/05/23 04:52:29;;;;;;;7.07;4.20;;;12.80;99.90;;;;;;5040004;28;20040;-71
2022/05/23 04:54:55;;;;;;;10.57;4.40;;;12.90;99.90;;;;;;5043896;28;20048;-71
2022/05/23 04:57:21;;;;;;;9.43;4.60;;;12.80;99.90;;;;;;5028634;28;20092;-71
2022/05/23 04:59:46;;;;;;;7.22;4.32;;;12.90;99.90;;;;;;5030577;28;20038;-71
2022/05/23 05:02:12;;;;;;;8.40;4.75;;;12.90;99.90;;;;;;5028143;28;20056;-71
2022/05/23 05:04:38;;;;;;;9.20;4.68;;;12.90;99.90;;;;;;5033885;28;20084;-71
2022/05/23 05:07:04;;;;;;;7.93;4.40;;;13.00;99.90;;;;;;5006047;28;20550;-71
2022/05/23 05:09:30;;;;;;;7.82;4.32;;;13.00;99.90;;;;;;5027558;28;20042;-71
2022/05/23 05:11:56;;;;;;;11.02;5.43;;;13.10;99.90;;;;;;5028082;28;20405;-71
2022/05/23 05:14:21;;;;;;;7.55;4.43;;;13.10;99.90;;;;;;5027549;28;20057;-71
2022/05/23 05:16:47;;;;;;;8.20;4.45;;;13.30;99.90;;;;;;5032590;28;20548;-71
2022/05/23 05:19:13;;;;;;;8.45;4.80;;;13.30;99.90;;;;;;5033470;28;20413;-71
2022/05/23 05:21:38;;;;;;;8.45;4.80;;;13.30;99.90;;;;;;5028495;28;20041;-71
2022/05/23 05:24:05;;;;;;;9.30;5.05;;;13.30;99.90;;;;;;5029414;28;20611;-71
2022/05/23 05:26:30;;;;;;;8.75;4.50;;;13.50;99.90;;;;;;5027294;28;20108;-71
2022/05/23 05:28:56;;;;;;;8.35;4.90;;;13.50;99.90;;;;;;5034576;28;20040;-71
2022/05/23 05:31:41;;;;;;;8.07;4.55;;;13.60;99.90;;;;;;5024518;28;20048;-72
2022/05/23 05:34:18;;;;;;;12.40;4.90;;;13.60;99.90;;;;;;5039724;28;20039;-72
2022/05/23 05:36:52;;;;;;;12.02;5.53;;;13.70;99.90;;;;;;5040953;28;20056;-71
2022/05/23 05:39:21;;;;;;;8.55;4.80;;;13.80;99.90;;;;;;5049883;28;20527;-71
2022/05/23 05:42:05;;;;;;;7.85;4.40;;;13.80;99.90;;;;;;5053004;28;20086;-71
2022/05/23 05:44:34;;;;;;;8.98;4.70;;;13.90;99.90;;;;;;5052907;28;20040;-71
2022/05/23 05:47:08;;;;;;;10.18;4.95;;;14.00;99.90;;;;;;5050086;28;20400;-71
2022/05/23 05:49:35;;;;;;;15.15;5.43;;;14.20;99.90;;;;;;5044381;28;20041;-71
2022/05/23 05:52:03;;;;;;;10.15;5.30;;;14.20;99.90;;;;;;5051881;28;20112;-72
2022/05/23 05:54:30;;;;;;;8.50;4.85;;;14.20;99.90;;;;;;5054741;28;20440;-71
2022/05/23 05:56:59;;;;;;;9.73;5.40;;;14.30;99.90;;;;;;5050746;28;20041;-71
2022/05/23 05:59:25;;;;;;;8.68;5.60;;;14.30;99.90;;;;;;5053816;28;20112;-71
2022/05/23 06:01:50;;;;;;;10.65;5.50;;;14.30;99.90;;;;;;5053172;28;20063;-71
2022/05/23 06:04:16;;;;;;;10.02;5.78;;;14.30;99.90;;;;;;5045617;28;20042;-71
2022/05/23 06:12:11;;;;;;;11.35;6.07;;;14.50;99.90;;;;;;5051313;28;20040;-72
2022/05/23 06:14:37;;;;;;;10.77;5.30;;;14.70;99.90;;;;;;5042821;28;20095;-72
2022/05/23 06:17:06;;;;;;;11.02;5.57;;;14.90;99.90;;;;;;5052909;28;20127;-72
2022/05/23 06:19:41;;;;;;;11.88;5.30;;;15.00;99.90;;;;;;5052099;28;20393;-72
2022/05/23 06:22:07;;;;;;;9.02;5.07;;;15.20;99.90;;;;;;5053032;28;20123;-71
2022/05/23 06:24:33;;;;;;;8.85;5.28;;;15.40;99.90;;;;;;5052638;28;20033;-71
2022/05/23 06:26:59;;;;;;;9.55;5.40;;;15.50;99.90;;;;;;5052512;28;20036;-71
2022/05/23 06:29:25;;;;;;;11.38;4.75;;;15.80;99.90;;;;;;5052111;28;20049;-71
2022/05/23 06:31:51;;;;;;;9.55;5.20;;;15.70;99.90;;;;;;5050448;28;20037;-72
2022/05/23 06:34:16;;;;;;;9.88;6.03;;;15.90;99.90;;;;;;5050743;28;20447;-71
2022/05/23 06:36:42;;;;;;;11.93;5.28;;;15.80;99.90;;;;;;5035850;28;20120;-71
2022/05/23 06:39:07;;;;;;;9.18;4.82;;;15.90;99.90;;;;;;5041136;28;20033;-71
2022/05/23 06:41:33;;;;;;;9.35;5.05;;;15.90;99.90;;;;;;5052244;28;20044;-71
2022/05/23 06:43:58;;;;;;;11.05;5.00;;;15.80;99.90;;;;;;5053841;28;20536;-71
2022/05/23 06:46:24;;;;;;;9.70;4.88;;;15.90;99.90;;;;;;5049543;28;20045;-71
2022/05/23 06:48:50;;;;;;;11.18;5.50;;;15.90;99.90;;;;;;5047691;28;20033;-72
2022/05/23 06:51:16;;;;;;;9.48;4.65;;;15.80;99.90;;;;;;5051656;28;20063;-72
2022/05/23 06:53:42;;;;;;;11.75;5.70;;;15.90;99.90;;;;;;5050015;28;20045;-72
2022/05/23 06:56:08;;;;;;;9.35;5.05;;;15.90;99.90;;;;;;5053890;28;20516;-76
2022/05/23 06:58:33;;;;;;;8.82;5.45;;;15.90;99.90;;;;;;5033992;28;20551;-76
2022/05/23 07:00:59;;;;;;;10.43;5.40;;;16.00;99.90;;;;;;5050874;28;20079;-76
2022/05/23 07:03:25;;;;;;;10.18;5.38;;;16.10;99.90;;;;;;5032669;28;20475;-75
2022/05/23 07:14:03;;;;;;;9.32;5.70;;;16.20;99.90;;;;;;5035532;28;20053;-72
2022/05/23 07:16:31;;;;;;;10.85;5.82;;;16.30;99.90;;;;;;5051210;28;20045;-71
2022/05/23 07:18:57;;;;;;;11.90;5.45;;;16.50;99.90;;;;;;5050286;28;20083;-72
2022/05/23 07:21:24;;;;;;;9.25;5.60;;;16.70;99.90;;;;;;5050136;28;20072;-71
2022/05/23 07:23:50;;;;;;;9.68;5.40;;;16.90;99.90;;;;;;5040343;28;20055;-72
2022/05/23 07:26:19;;;;;;;8.25;4.50;;;16.90;99.90;;;;;;5049665;28;20104;-72
2022/05/23 07:28:46;;;;;;;12.32;5.50;;;17.00;99.90;;;;;;5053536;28;20045;-71
2022/05/23 07:31:13;;;;;;;9.10;4.95;;;17.20;99.90;;;;;;5048464;28;20043;-72
2022/05/23 07:33:39;;;;;;;9.13;5.10;;;17.30;99.90;;;;;;5052942;28;20052;-72
2022/05/23 07:36:07;;;;;;;11.40;5.65;;;17.60;99.90;;;;;;5049828;28;20041;-72
2022/05/23 07:38:33;;;;;;;11.32;5.43;;;17.70;99.90;;;;;;5040849;28;20091;-72
2022/05/23 07:40:59;;;;;;;11.25;5.95;;;17.90;99.90;;;;;;5052522;28;20051;-72
2022/05/23 07:43:25;;;;;;;11.30;5.60;;;18.10;99.90;;;;;;5051806;28;20033;-72
2022/05/23 07:45:52;;;;;;;10.00;5.38;;;18.10;99.90;;;;;;5048598;28;21580;-72
2022/05/23 07:48:18;;;;;;;9.88;5.47;;;18.30;99.90;;;;;;5051506;28;20119;-71
2022/05/23 07:50:45;;;;;;;11.27;5.53;;;18.40;99.90;;;;;;5049415;28;20045;-72
2022/05/23 08:01:27;;;;;;;10.38;4.97;;;18.80;99.90;;;;;;5046052;28;20053;-72
2022/05/23 08:03:53;;;;;;;9.43;4.82;;;18.90;99.90;;;;;;5049879;28;20374;-72
2022/05/23 08:06:19;;;;;;;9.98;5.30;;;19.10;99.90;;;;;;5050500;28;20135;-72
2022/05/23 08:08:44;;;;;;;11.55;5.32;;;19.20;99.90;;;;;;5051340;28;20049;-72
2022/05/23 08:11:10;;;;;;;8.38;4.68;;;19.30;99.90;;;;;;5042477;28;20041;-72
2022/05/23 08:13:37;;;;;;;10.95;5.25;;;19.30;99.90;;;;;;5036628;28;20048;-72
2022/05/23 08:16:04;;;;;;;9.57;4.90;;;19.30;99.90;;;;;;5022160;28;20083;-72
2022/05/23 08:18:29;;;;;;;12.23;5.38;;;19.20;99.90;;;;;;5051684;28;20044;-72
2022/05/23 08:20:55;;;;;;;9.82;6.18;;;19.30;99.90;;;;;;5048077;28;20029;-71
2022/05/23 08:23:21;;;;;;;11.05;5.25;;;19.10;99.90;;;;;;5051135;28;20495;-72
2022/05/23 08:25:46;;;;;;;8.52;5.10;;;19.20;99.90;;;;;;5050897;28;20045;-72
2022/05/23 08:28:13;;;;;;;9.45;4.90;;;19.40;99.90;;;;;;5052105;28;20094;-72
2022/05/23 08:30:39;;;;;;;10.10;5.15;;;19.50;99.90;;;;;;5046590;28;20493;-72
2022/05/23 08:33:05;;;;;;;9.45;4.90;;;19.60;99.90;;;;;;5054486;28;20047;-72
2022/05/23 08:35:31;;;;;;;13.30;5.38;;;19.80;99.90;;;;;;5053378;28;20409;-72
2022/05/23 08:37:58;;;;;;;10.13;4.80;;;20.00;99.90;;;;;;5051262;28;20033;-72
2022/05/23 08:40:50;;;;;;;10.95;4.45;;;20.10;99.90;;;;;;5055965;28;20044;-72
2022/05/23 08:43:30;;;;;;;8.90;4.25;;;20.40;99.90;;;;;;5054146;28;20045;-72
2022/05/23 08:45:58;;;;;;;11.10;5.20;;;20.30;99.90;;;;;;5053229;28;20041;-72
2022/05/23 08:48:48;;;;;;;9.73;4.75;;;20.40;99.90;;;;;;5036666;28;20059;-72
2022/05/23 08:51:18;;;;;;;8.70;4.47;;;20.60;99.90;;;;;;5055224;28;20507;-72
2022/05/23 08:54:13;;;;;;;7.93;4.20;;;20.70;99.90;;;;;;5051237;28;20048;-72
2022/05/23 08:56:49;;;;;;;7.57;3.50;;;20.80;99.90;;;;;;5045318;28;20041;-72
2022/05/23 08:59:25;;;;;;;10.98;4.18;;;20.90;99.90;;;;;;5051830;28;20094;-72
2022/05/23 09:02:16;;;;;;;7.85;3.75;;;21.00;99.90;;;;;;5045899;28;20389;-72
2022/05/23 09:05:04;;;;;;;7.07;3.72;;;21.20;99.90;;;;;;5053841;28;20152;-72
2022/05/23 09:07:39;;;;;;;8.68;3.63;;;21.30;99.90;;;;;;5054785;28;20036;-72
2022/05/23 09:10:12;;;;;;;8.52;3.58;;;21.30;99.90;;;;;;5052063;28;20037;-72
2022/05/23 09:12:37;;;;;;;7.75;3.80;;;21.50;99.90;;;;;;5048532;28;20517;-73
2022/05/23 09:15:03;;;;;;;7.70;3.33;;;21.60;99.90;;;;;;5054693;28;20221;-73
2022/05/23 09:17:34;;;;;;;7.10;3.50;;;21.70;99.90;;;;;;5054708;28;20064;-72
2022/05/23 09:20:06;;;;;;;9.52;4.07;;;21.80;99.90;;;;;;5054364;28;20029;-72
2022/05/23 09:22:47;;;;;;;6.22;3.00;;;21.80;99.90;;;;;;5053189;28;20484;-72
2022/05/23 09:25:17;;;;;;;8.30;3.40;;;22.00;99.90;;;;;;5055416;28;20103;-72
2022/05/23 09:28:01;;;;;;;8.32;3.33;;;22.10;99.90;;;;;;5051258;28;20291;-72
2022/05/23 09:30:27;;;;;;;7.88;2.90;;;22.10;99.90;;;;;;5052754;28;20071;-72
2022/05/23 09:33:09;;;;;;;7.05;3.53;;;22.20;99.90;;;;;;5051746;28;20048;-72
2022/05/23 09:35:41;;;;;;;8.20;3.53;;;22.30;99.90;;;;;;5053917;28;20052;-72
2022/05/23 09:38:32;;;;;;;7.80;3.20;;;22.40;99.90;;;;;;5055510;28;20045;-72
2022/05/23 09:40:58;;;;;;;8.70;3.38;;;22.40;99.90;;;;;;5055268;28;20112;-72
2022/05/23 09:49:16;;;;;;;7.65;2.80;;;22.40;99.90;;;;;;5053919;28;20493;-72
2022/05/23 09:51:57;;;;;;;6.97;3.08;;;22.30;99.80;;;;;;5052566;28;20543;-73
2022/05/23 09:54:46;;;;;;;7.35;2.65;;;22.40;99.90;;;;;;5035946;28;20094;-73
2022/05/23 09:57:52;;;;;;;5.88;2.30;;;22.40;98.20;;;;;;5053686;28;20107;-72
2022/05/23 10:00:17;;;;;;;6.53;2.85;;;22.40;99.30;;;;;;5036536;28;20071;-72
2022/05/23 10:02:57;;;;;;;7.45;2.85;;;22.50;99.90;;;;;;5053911;28;20505;-72
2022/05/23 10:05:33;;;;;;;5.00;2.45;;;22.40;99.90;;;;;;5048708;28;20040;-72
2022/05/23 10:08:04;;;;;;;7.55;2.65;;;22.40;99.30;;;;;;5052435;28;20117;-72
2022/05/23 10:10:33;;;;;;;5.35;2.65;;;22.40;99.90;;;;;;5047145;28;20045;-72
2022/05/23 10:13:29;;;;;;;6.80;2.42;;;22.30;99.90;;;;;;5039946;28;20402;-72
2022/05/23 10:16:00;;;;;;;5.60;2.28;;;22.30;98.60;;;;;;5038639;28;20037;-72
2022/05/23 10:18:27;;;;;;;6.10;2.28;;;22.30;97.50;;;;;;5033138;28;20127;-72
2022/05/23 10:20:54;;;;;;;6.43;2.40;;;22.20;98.00;;;;;;5050294;28;20040;-72
2022/05/23 10:23:40;;;;;;;8.82;3.08;;;22.30;98.70;;;;;;5036329;28;20041;-72
2022/05/23 10:26:23;;;;;;;6.93;2.45;;;22.30;99.50;;;;;;5052240;28;20044;-72
2022/05/23 10:28:53;;;;;;;6.80;2.58;;;22.30;97.30;;;;;;5051179;28;20033;-72
2022/05/23 10:31:37;;;;;;;6.70;2.50;;;22.40;98.30;;;;;;5043374;28;20068;-72
2022/05/23 10:34:14;;;;;;;5.88;2.50;;;22.50;97.40;;;;;;5051841;28;20098;-72
2022/05/23 10:36:46;;;;;;;11.48;3.03;;;22.60;97.50;;;;;;5050294;28;20033;-72
2022/05/23 10:42:27;;;;;;;7.57;2.85;;;22.50;98.30;;;;;;5052337;28;20036;-71
2022/05/23 10:45:16;;;;;;;6.88;2.83;;;22.80;98.00;;;;;;5052360;28;20041;-72
2022/05/23 10:47:44;;;;;;;9.73;3.15;;;22.70;99.30;;;;;;5035834;28;20508;-72
2022/05/23 10:50:28;;;;;;;14.68;3.20;;;22.80;99.90;;;;;;5053499;28;20052;-76
2022/05/23 10:53:24;;;;;;;8.27;3.00;;;22.90;99.00;;;;;;5052671;28;20083;-79
2022/05/23 10:56:01;;;;;;;8.82;2.85;;;23.00;97.70;;;;;;5052251;28;20043;-77
2022/05/23 10:58:36;;;;;;;8.02;2.85;;;22.90;97.40;;;;;;5051466;28;20040;-77
2022/05/23 11:01:39;;;;;;;8.15;3.03;;;23.00;98.00;;;;;;5045203;28;20040;-77
2022/05/23 11:04:42;;;;;;;8.48;3.38;;;22.90;96.70;;;;;;5052248;28;20052;-77
2022/05/23 11:08:05;;;;;;;6.72;2.75;;;23.20;98.10;;;;;;5035879;28;20378;-78
2022/05/23 11:10:36;;;;;;;7.72;3.00;;;23.40;97.00;;;;;;4993470;28;20084;-77
2022/05/23 11:13:10;;;;;;;9.02;2.60;;;23.50;99.10;;;;;;4976121;28;20038;-77
2022/05/23 11:16:01;;;;;;;7.68;2.85;;;23.70;99.00;;;;;;5013470;28;20045;-77
2022/05/23 11:18:51;;;;;;;8.45;3.03;;;23.70;96.80;;;;;;5032399;28;20052;-75
2022/05/23 11:21:28;;;;;;;7.25;2.50;;;23.90;97.70;;;;;;5043033;28;20493;-73
2022/05/23 11:24:05;;;;;;;6.68;2.67;;;24.00;96.00;;;;;;5033776;28;20520;-73
2022/05/23 11:26:37;;;;;;;6.30;2.67;;;23.90;97.30;;;;;;5042166;28;20052;-72
2022/05/23 11:34:44;;;;;;;7.45;2.80;;;23.80;96.60;;;;;;5052231;28;20051;-73
2022/05/23 11:37:49;;;;;;;5.75;2.20;;;23.80;97.20;;;;;;5043715;28;20094;-73
2022/05/23 11:40:30;;;;;;;6.53;2.25;;;23.90;97.00;;;;;;5048910;28;20044;-74
2022/05/23 11:43:15;;;;;;;6.50;2.40;;;24.00;95.30;;;;;;5045708;28;20048;-73
2022/05/23 11:46:04;;;;;;;5.72;2.03;;;24.00;95.20;;;;;;5052468;28;20485;-73
2022/05/23 11:48:42;;;;;;;6.32;2.40;;;24.10;95.20;;;;;;5049317;28;20049;-73
2022/05/23 11:51:23;;;;;;;4.22;2.13;;;24.00;93.30;;;;;;5049851;28;20048;-73
2022/05/23 11:54:00;;;;;;;6.65;2.00;;;24.10;94.20;;;;;;5040610;28;20041;-73
2022/05/23 11:56:48;;;;;;;7.20;2.28;;;24.30;82.20;;;;;;5051628;28;20049;-73
2022/05/23 11:59:23;;;;;;;6.82;2.20;;;24.00;92.70;;;;;;5048694;28;20048;-73
2022/05/23 12:02:08;;;;;;;3.60;1.80;;;23.90;94.00;;;;;;5049008;28;20056;-73
2022/05/23 12:04:55;;;;;;;7.00;2.15;;;24.00;90.70;;;;;;5052123;28;20127;-74
2022/05/23 12:07:43;;;;;;;6.97;2.40;;;24.10;88.50;;;;;;5058328;28;20107;-74
2022/05/23 12:10:20;;;;;;;5.25;2.38;;;24.00;92.90;;;;;;5030174;28;20033;-73
2022/05/23 12:12:50;;;;;;;4.43;2.15;;;24.00;91.60;;;;;;5055053;28;20087;-75
2022/05/23 12:15:44;;;;;;;4.28;2.10;;;24.00;91.20;;;;;;5059318;28;20481;-73
2022/05/23 12:18:28;;;;;;;4.70;2.22;;;24.00;92.20;;;;;;5022662;28;20045;-73
2022/05/23 12:21:06;;;;;;;5.57;2.63;;;23.90;96.60;;;;;;5052201;28;20489;-71
2022/05/23 12:23:34;;;;;;;8.15;2.60;;;23.90;95.40;;;;;;5059096;28;20044;-71
2022/05/23 12:26:12;;;;;;;10.27;2.70;;;24.00;96.10;;;;;;5057520;28;20061;-71
2022/05/23 12:28:59;;;;;;;5.65;2.08;;;24.10;95.50;;;;;;5047366;28;20041;-70
2022/05/23 12:31:36;;;;;;;5.88;2.28;;;24.30;93.30;;;;;;5054452;28;20091;-70
2022/05/23 12:34:02;;;;;;;6.22;2.38;;;24.30;92.20;;;;;;5056668;28;20044;-70
2022/05/23 12:36:31;;;;;;;6.18;2.60;;;24.20;90.00;;;;;;5039156;28;20049;-71
2022/05/23 12:39:02;;;;;;;7.15;2.47;;;24.10;94.50;;;;;;5056663;28;20083;-71
2022/05/23 12:41:31;;;;;;;;;;;24.00;94.70;;;;;;5056885;28;20037;-71
2022/05/23 12:44:30;;;;;;;4.72;2.30;;;24.00;95.20;;;;;;5054895;28;20365;-71
2022/05/23 12:47:24;;;;;;;5.20;2.30;;;23.80;96.10;;;;;;5054667;28;20056;-70
2022/05/23 12:50:07;;;;;;;3.38;1.85;;;23.70;94.40;;;;;;5050287;28;20120;-70
2022/05/23 12:53:12;;;;;;;5.50;2.42;;;23.80;91.50;;;;;;5056665;28;20392;-71
2022/05/23 12:56:03;;;;;;;4.93;2.45;;;23.60;95.30;;;;;;5040637;28;20045;-71
2022/05/23 12:58:49;;;;;;;4.90;2.05;;;23.50;97.90;;;;;;5054885;28;20076;-70
2022/05/23 13:01:21;;;;;;;5.78;2.40;;;23.50;97.20;;;;;;5054745;28;20083;-71
2022/05/23 13:04:05;;;;;;;5.20;2.20;;;23.60;94.10;;;;;;5054559;28;20408;-70
2022/05/23 13:06:35;;;;;;;5.32;2.28;;;23.80;91.10;;;;;;5057671;28;20052;-71
2022/05/23 13:09:13;;;;;;;5.10;2.10;;;23.80;92.70;;;;;;5055955;28;20051;-70
2022/05/23 13:11:48;;;;;;;8.13;2.60;;;23.80;93.80;;;;;;5058039;28;20045;-71
2022/05/23 13:14:14;;;;;;;4.47;2.25;;;23.80;94.40;;;;;;5056322;28;20049;-71
2022/05/23 13:16:54;;;;;;;5.88;2.47;;;23.60;98.00;;;;;;5056308;28;20072;-70
2022/05/23 13:22:12;;;;;;;9.02;2.85;;;23.60;95.70;;;;;;5053084;28;20041;-71
2022/05/23 13:24:53;;;;;;;6.75;3.00;;;23.60;94.00;;;;;;5053749;28;20065;-71
2022/05/23 13:27:49;;;;;;;7.43;2.92;;;23.60;94.70;;;;;;5049938;28;20036;-71
2022/05/23 13:30:17;;;;;;;7.28;3.03;;;23.40;98.00;;;;;;5050337;28;20041;-71
2022/05/23 13:32:44;;;;;;;5.45;2.75;;;23.20;98.40;;;;;;5046861;28;20041;-74
2022/05/23 13:35:30;;;;;;;7.00;3.20;;;23.10;98.80;;;;;;5053374;28;20565;-73
2022/05/23 13:37:56;;;;;;;7.45;3.00;;;22.90;99.90;;;;;;5053513;28;20077;-73
2022/05/23 13:40:27;;;;;;;4.88;2.60;;;22.90;99.90;;;;;;5054830;28;20072;-73
2022/05/23 13:43:12;;;;;;;6.10;2.80;;;22.90;99.90;;;;;;5052765;28;20044;-73
2022/05/23 13:45:41;;;;;;;8.90;2.90;;;23.00;99.40;;;;;;5040930;28;20394;-73
2022/05/23 13:48:16;;;;;;;6.10;2.90;;;23.20;98.10;;;;;;5055187;28;20076;-73
2022/05/23 13:50:57;;;;;;;6.47;2.90;;;23.10;98.50;;;;;;5054576;28;20092;-73
2022/05/23 13:53:32;;;;;;;7.30;3.05;;;23.20;98.90;;;;;;5052704;28;20047;-75
2022/05/23 13:56:01;;;;;;;7.43;2.80;;;23.20;97.30;;;;;;5054148;28;20493;-74
2022/05/23 13:58:32;;;;;;;7.63;3.17;;;23.10;98.60;;;;;;5045987;28;20084;-74
2022/05/23 14:01:17;;;;;;;8.18;2.60;;;23.00;99.70;;;;;;5051880;28;20398;-75
2022/05/23 14:04:04;;;;;;;6.13;2.72;;;23.00;99.90;;;;;;5054592;28;20049;-83
2022/05/23 14:06:34;;;;;;;5.57;2.70;;;22.90;99.90;;;;;;5051004;28;20394;-82